KSNT

Stanley Ranger Station Airport

Stanley, Idaho, USA
METAR KSNT 212151Z AUTO 00000KT 19/02 A3014 RMK AO1 SLP130 T01890022
Observed Flight Rules
Jun-21 @ 21:51 UTC (16 minutes ago)
Temperatures Readings
Current 19°C / 66°F
Dewpoint 2°C / 36°F
Humidity 32%
Altimeter 30.14" Hg
Pressure 1013 hPa
Elevation 1980
METAR KSNT 212151Z AUTO 00000KT 19/02 A3014 RMK AO1 SLP130 T01890022
Observed Flight Rules
Jun-21 @ 21:51 UTC
(16 minutes ago)
Temperature Dewpoint
19°C / 66°F 2°C / 36°F
Humidity Altimeter Pressure
32% 30.14" Hg 1013 hPa